Time;durP1;ratioP1;P1;durP2;ratioP2;P2;SDS_P1;SDS_P2;PMS_P1;PMS_P2;Temp;Humidity;BMP_temperature;BMP_pressure;BME280_temperature;BME280_humidity;BME280_pressure;Samples;Min_cycle;Max_cycle;Signal;HPM_P1;HPM_P2
2022/07/01 00:02:25;;;;;;;0.97;0.63;;;18.10;99.90;;;;;;5100193;28;20557;-86
2022/07/01 00:04:52;;;;;;;0.40;0.30;;;18.30;99.90;;;;;;5104437;28;20495;-86
2022/07/01 00:07:20;;;;;;;0.80;0.57;;;18.40;99.90;;;;;;5102905;28;21136;-85
2022/07/01 00:09:47;;;;;;;0.70;0.60;;;18.30;99.90;;;;;;5108367;28;20458;-86
2022/07/01 00:12:14;;;;;;;0.73;0.50;;;18.30;99.90;;;;;;5102454;28;20465;-85
2022/07/01 00:14:42;;;;;;;0.43;0.37;;;18.20;99.90;;;;;;5103129;28;20474;-86
2022/07/01 00:17:09;;;;;;;4.77;0.70;;;18.10;99.90;;;;;;5106085;28;20460;-86
2022/07/01 00:19:36;;;;;;;0.50;0.37;;;18.10;99.90;;;;;;5104188;28;21026;-87
2022/07/01 00:22:04;;;;;;;1.00;0.40;;;18.10;99.90;;;;;;5109085;28;20481;-86
2022/07/01 00:24:31;;;;;;;0.60;0.47;;;18.10;99.90;;;;;;5104196;28;20765;-86
2022/07/01 00:26:58;;;;;;;0.50;0.40;;;18.00;99.90;;;;;;5104989;28;20542;-86
2022/07/01 00:29:25;;;;;;;0.57;0.50;;;18.00;99.90;;;;;;5106209;28;20520;-85
2022/07/01 00:31:53;;;;;;;1.33;0.40;;;18.00;99.90;;;;;;5108843;28;20510;-86
2022/07/01 00:34:20;;;;;;;0.80;0.50;;;18.00;99.90;;;;;;5106350;28;20462;-86
2022/07/01 00:36:47;;;;;;;2.00;0.37;;;18.10;99.90;;;;;;5106846;28;21169;-86
2022/07/01 00:39:14;;;;;;;1.07;0.40;;;18.10;99.90;;;;;;5102570;28;20476;-85
2022/07/01 00:41:41;;;;;;;0.50;0.43;;;17.90;99.90;;;;;;5104004;28;20478;-86
2022/07/01 00:44:17;;;;;;;1.90;0.40;;;17.90;99.90;;;;;;5105682;28;20484;-86
2022/07/01 00:46:44;;;;;;;0.93;0.50;;;17.80;99.90;;;;;;5106708;28;20461;-86
2022/07/01 00:49:13;;;;;;;0.40;0.40;;;17.70;99.90;;;;;;5105622;28;20461;-87
2022/07/01 00:51:40;;;;;;;2.50;0.50;;;17.70;99.90;;;;;;5103675;28;20553;-87
2022/07/01 00:54:07;;;;;;;0.50;0.40;;;17.70;99.90;;;;;;5104329;28;20817;-87
2022/07/01 00:56:34;;;;;;;0.70;0.30;;;17.60;99.90;;;;;;5103754;28;20882;-86
2022/07/01 00:59:01;;;;;;;0.57;0.40;;;17.70;99.90;;;;;;5103916;28;20521;-86
2022/07/01 01:01:28;;;;;;;0.97;0.50;;;17.70;99.90;;;;;;5104943;28;20497;-87
2022/07/01 01:03:56;;;;;;;0.50;0.40;;;17.70;99.90;;;;;;5106344;28;20517;-86
2022/07/01 01:06:24;;;;;;;2.03;0.50;;;17.60;99.90;;;;;;5103599;28;20462;-85
2022/07/01 01:08:51;;;;;;;0.40;0.37;;;17.60;99.90;;;;;;5106477;28;20465;-88
2022/07/01 01:11:18;;;;;;;0.53;0.50;;;17.70;99.90;;;;;;5104113;28;20530;-86
2022/07/01 01:13:45;;;;;;;1.83;0.40;;;17.60;99.90;;;;;;5107622;28;20461;-88
2022/07/01 01:16:20;;;;;;;0.67;0.43;;;17.70;99.90;;;;;;5108082;28;20466;-87
2022/07/01 01:18:48;;;;;;;0.80;0.50;;;17.70;99.90;;;;;;5107608;28;20557;-89
2022/07/01 01:21:17;;;;;;;0.60;0.50;;;17.70;99.90;;;;;;5106760;28;20490;-86
2022/07/01 01:23:44;;;;;;;1.50;0.50;;;17.80;99.90;;;;;;5105467;28;20948;-88
2022/07/01 01:26:19;;;;;;;0.70;0.40;;;17.70;99.90;;;;;;5104787;28;20466;-87
2022/07/01 01:28:47;;;;;;;0.47;0.37;;;17.80;99.90;;;;;;5101581;28;20470;-88
2022/07/01 01:31:14;;;;;;;0.50;0.43;;;17.80;99.90;;;;;;5104537;28;20829;-86
2022/07/01 01:33:41;;;;;;;0.50;0.40;;;17.70;99.90;;;;;;5107340;28;20508;-86
2022/07/01 01:36:08;;;;;;;0.87;0.40;;;17.70;99.90;;;;;;5106779;28;20545;-87
2022/07/01 01:38:38;;;;;;;0.50;0.40;;;17.70;99.90;;;;;;5105094;28;20463;-87
2022/07/01 01:41:05;;;;;;;0.87;0.40;;;17.70;99.90;;;;;;5102192;28;20511;-85
2022/07/01 01:43:34;;;;;;;0.50;0.50;;;17.80;99.90;;;;;;5106546;28;20546;-90
2022/07/01 01:46:02;;;;;;;0.50;0.50;;;17.80;99.90;;;;;;5105153;28;20505;-86
2022/07/01 01:48:30;;;;;;;0.40;0.30;;;17.80;99.90;;;;;;5101935;28;20497;-86
2022/07/01 01:50:57;;;;;;;1.23;0.40;;;17.80;99.90;;;;;;5105651;28;20462;-88
2022/07/01 01:53:24;;;;;;;0.57;0.50;;;17.80;99.90;;;;;;5101038;28;21054;-87
2022/07/01 01:55:53;;;;;;;1.73;0.50;;;17.90;99.90;;;;;;5104627;28;20470;-88
2022/07/01 01:58:20;;;;;;;0.70;0.60;;;17.90;99.90;;;;;;5107224;28;20955;-86
2022/07/01 02:00:47;;;;;;;0.67;0.67;;;17.90;99.90;;;;;;5103970;28;20519;-87
2022/07/01 02:03:14;;;;;;;0.60;0.50;;;17.90;99.90;;;;;;5103623;28;20626;-87
2022/07/01 02:05:41;;;;;;;0.70;0.33;;;17.90;99.90;;;;;;5101955;28;20469;-87
2022/07/01 02:08:08;;;;;;;0.63;0.50;;;17.90;99.90;;;;;;5102563;28;20474;-87
2022/07/01 02:10:35;;;;;;;1.27;0.80;;;17.80;99.90;;;;;;5101996;28;21064;-88
2022/07/01 02:13:04;;;;;;;0.80;0.50;;;17.80;99.90;;;;;;5105265;28;20496;-88
2022/07/01 02:15:31;;;;;;;0.63;0.63;;;17.80;99.90;;;;;;5114658;28;20455;-86
2022/07/01 02:17:58;;;;;;;0.50;0.40;;;17.70;99.90;;;;;;5115366;28;20529;-86
2022/07/01 02:20:25;;;;;;;1.27;0.50;;;17.80;99.90;;;;;;5110418;28;20494;-87
2022/07/01 02:22:52;;;;;;;0.87;0.53;;;17.80;99.90;;;;;;5106745;28;20493;-87
2022/07/01 02:25:20;;;;;;;0.60;0.50;;;17.80;99.90;;;;;;5107294;28;20659;-88
2022/07/01 02:27:48;;;;;;;4.63;0.90;;;17.80;99.90;;;;;;5107883;28;20458;-87
2022/07/01 02:30:16;;;;;;;0.50;0.50;;;17.70;99.90;;;;;;5107413;28;20466;-88
2022/07/01 02:32:43;;;;;;;0.67;0.60;;;17.60;99.90;;;;;;5098673;28;20535;-88
2022/07/01 02:35:11;;;;;;;0.80;0.60;;;17.60;99.90;;;;;;5104107;28;20545;-87
2022/07/01 02:37:38;;;;;;;0.80;0.50;;;17.50;99.90;;;;;;5104861;28;20530;-89
2022/07/01 02:40:06;;;;;;;0.80;0.60;;;17.50;99.90;;;;;;5101009;28;20462;-90
2022/07/01 02:42:36;;;;;;;0.60;0.50;;;17.40;99.90;;;;;;5111549;28;20485;-88
2022/07/01 02:45:05;;;;;;;0.90;0.80;;;17.30;99.90;;;;;;5112341;28;20480;-88
2022/07/01 02:47:35;;;;;;;0.70;0.70;;;17.30;99.90;;;;;;5105639;28;20856;-88
2022/07/01 02:50:02;;;;;;;0.87;0.50;;;17.20;99.90;;;;;;5104078;28;20537;-89
2022/07/01 02:52:29;;;;;;;1.57;0.50;;;17.10;99.90;;;;;;5100592;28;20492;-88
2022/07/01 02:54:56;;;;;;;0.57;0.50;;;17.10;99.90;;;;;;5103661;28;20527;-87
2022/07/01 02:57:23;;;;;;;0.60;0.57;;;17.20;99.90;;;;;;5106381;28;20458;-89
2022/07/01 02:59:51;;;;;;;3.00;0.60;;;17.10;99.90;;;;;;5097972;28;20570;-88
2022/07/01 03:02:19;;;;;;;3.53;0.80;;;17.20;99.90;;;;;;5106336;28;20541;-87
2022/07/01 03:04:47;;;;;;;0.90;0.60;;;17.20;99.90;;;;;;5101741;28;20520;-87
2022/07/01 03:07:15;;;;;;;0.80;0.63;;;17.20;99.90;;;;;;5101523;28;20511;-87
2022/07/01 03:09:43;;;;;;;1.67;0.50;;;17.30;99.90;;;;;;5105243;28;21171;-85
2022/07/01 03:12:27;;;;;;;0.80;0.50;;;17.30;99.90;;;;;;5103640;28;20462;-86
2022/07/01 03:14:55;;;;;;;0.77;0.50;;;17.30;99.90;;;;;;5105549;28;20469;-87
2022/07/01 03:17:22;;;;;;;0.50;0.40;;;17.40;99.90;;;;;;5105626;28;20553;-87
2022/07/01 03:19:52;;;;;;;3.70;0.50;;;17.40;99.90;;;;;;5101313;28;20466;-86
2022/07/01 03:22:20;;;;;;;1.17;0.70;;;17.50;99.90;;;;;;5102901;28;20450;-85
2022/07/01 03:24:47;;;;;;;0.70;0.50;;;17.50;99.90;;;;;;5103336;28;20513;-88
2022/07/01 03:27:14;;;;;;;2.00;0.60;;;17.50;99.90;;;;;;5099228;28;20455;-87
2022/07/01 03:29:41;;;;;;;0.97;0.70;;;17.50;99.90;;;;;;5097822;28;20972;-86
2022/07/01 03:32:09;;;;;;;2.77;0.90;;;17.60;99.90;;;;;;5103946;28;20458;-86
2022/07/01 03:34:37;;;;;;;0.70;0.70;;;17.60;99.90;;;;;;5102056;28;20488;-86
2022/07/01 03:37:05;;;;;;;1.07;0.70;;;17.70;99.90;;;;;;5102138;28;20546;-89
2022/07/01 03:39:33;;;;;;;0.90;0.70;;;17.70;99.90;;;;;;5104541;27;20467;-88
2022/07/01 03:42:00;;;;;;;0.80;0.70;;;17.70;99.90;;;;;;5098934;28;20459;-87
2022/07/01 03:44:27;;;;;;;1.40;0.73;;;17.80;99.90;;;;;;5103757;28;20479;-87
2022/07/01 03:46:54;;;;;;;2.60;2.20;;;17.80;99.90;;;;;;5101559;28;20459;-86
2022/07/01 03:49:22;;;;;;;1.20;1.10;;;17.90;99.90;;;;;;5104400;28;20454;-89
2022/07/01 03:51:49;;;;;;;0.80;0.80;;;18.00;99.90;;;;;;5102483;28;20990;-87
2022/07/01 03:57:00;;;;;;;0.80;0.70;;;18.10;99.90;;;;;;5098300;28;20462;-87
2022/07/01 03:59:28;;;;;;;1.57;1.10;;;18.00;99.90;;;;;;5104210;28;20957;-86
2022/07/01 04:01:56;;;;;;;1.03;0.87;;;18.00;99.90;;;;;;5103183;28;20461;-86
2022/07/01 04:04:23;;;;;;;1.30;1.20;;;18.10;99.90;;;;;;5103016;28;20473;-85
2022/07/01 04:06:51;;;;;;;1.50;1.40;;;18.10;99.90;;;;;;5103497;28;20450;-87
2022/07/01 04:09:21;;;;;;;1.43;1.33;;;18.20;99.90;;;;;;5100236;28;20721;-86
2022/07/01 04:11:49;;;;;;;9.00;1.17;;;18.20;99.90;;;;;;5105529;28;20526;-88
2022/07/01 04:14:16;;;;;;;1.20;0.93;;;18.20;99.90;;;;;;5101661;28;20474;-85
2022/07/01 04:16:45;;;;;;;1.17;1.13;;;18.30;99.90;;;;;;5100771;28;20861;-86
2022/07/01 04:19:14;;;;;;;1.30;1.07;;;18.40;99.90;;;;;;5104483;28;20521;-90
2022/07/01 04:24:28;;;;;;;1.33;1.00;;;18.60;99.90;;;;;;5103721;28;20982;-87
2022/07/01 04:26:56;;;;;;;3.30;1.43;;;18.60;99.90;;;;;;5102624;28;20461;-87
2022/07/01 04:29:23;;;;;;;1.90;1.80;;;18.80;99.90;;;;;;5101325;28;20519;-88
2022/07/01 04:31:50;;;;;;;1.53;1.30;;;18.80;99.90;;;;;;5103950;28;20945;-87
2022/07/01 04:34:18;;;;;;;5.40;0.87;;;18.90;99.90;;;;;;5099305;28;20468;-87
2022/07/01 04:36:45;;;;;;;1.57;1.43;;;18.90;99.90;;;;;;5100390;28;20485;-86
2022/07/01 04:39:12;;;;;;;3.23;1.53;;;18.90;99.90;;;;;;5099516;28;20550;-88
2022/07/01 04:44:24;;;;;;;1.27;1.03;;;19.00;99.90;;;;;;5094695;28;20466;-88
2022/07/01 04:46:51;;;;;;;2.00;1.73;;;19.00;99.90;;;;;;5099132;28;20464;-86
2022/07/01 04:49:19;;;;;;;1.97;1.80;;;19.10;99.90;;;;;;5101131;28;20462;-86
2022/07/01 04:51:46;;;;;;;1.30;1.20;;;19.20;99.90;;;;;;5103328;28;20469;-89
2022/07/01 04:54:13;;;;;;;2.87;1.60;;;19.20;99.90;;;;;;5102049;28;21028;-87
2022/07/01 04:56:41;;;;;;;2.50;1.03;;;19.30;99.90;;;;;;5101266;28;20472;-85
2022/07/01 04:59:08;;;;;;;2.87;1.33;;;19.20;99.90;;;;;;5107676;28;20478;-84
2022/07/01 05:01:35;;;;;;;3.90;1.50;;;19.30;99.90;;;;;;5106176;28;20569;-90
2022/07/01 05:04:02;;;;;;;1.40;1.30;;;19.30;99.90;;;;;;5109877;28;20763;-89
2022/07/01 05:06:29;;;;;;;1.63;1.53;;;19.30;99.90;;;;;;5103869;28;20465;-88
2022/07/01 05:08:56;;;;;;;2.67;1.63;;;19.30;99.90;;;;;;5106199;28;20461;-90
2022/07/01 05:11:23;;;;;;;2.50;2.30;;;19.30;99.90;;;;;;5109018;28;20465;-93
2022/07/01 05:13:52;;;;;;;1.27;1.10;;;19.30;99.90;;;;;;5108940;28;20515;-91
2022/07/01 05:16:19;;;;;;;1.10;1.00;;;19.30;99.90;;;;;;5108245;28;20458;-92
2022/07/01 05:24:16;;;;;;;1.60;1.30;;;19.40;99.90;;;;;;5106809;28;20543;-93
2022/07/01 05:26:43;;;;;;;0.87;0.87;;;19.30;99.90;;;;;;5106188;28;20724;-92
2022/07/01 05:29:11;;;;;;;0.80;0.80;;;19.30;99.90;;;;;;5107469;28;20458;-91
2022/07/01 05:31:38;;;;;;;1.10;1.00;;;19.30;99.90;;;;;;5107610;28;20474;-92
2022/07/01 05:34:06;;;;;;;0.90;0.90;;;19.30;99.90;;;;;;5108324;28;20457;-94
2022/07/01 05:36:34;;;;;;;1.03;0.80;;;19.40;99.90;;;;;;5114927;28;21069;-91
2022/07/01 05:39:02;;;;;;;1.10;1.00;;;19.40;99.90;;;;;;5127161;28;20463;-93
2022/07/01 05:41:30;;;;;;;0.90;0.70;;;19.40;99.90;;;;;;5136553;28;20433;-92
2022/07/01 05:43:58;;;;;;;5.30;0.90;;;19.50;99.90;;;;;;5126516;28;20508;-92
2022/07/01 05:46:27;;;;;;;1.20;1.10;;;19.60;99.90;;;;;;5114722;28;20484;-92
2022/07/01 05:48:54;;;;;;;1.33;1.23;;;19.70;99.90;;;;;;5111857;28;20555;-93
2022/07/01 05:51:22;;;;;;;1.00;0.90;;;19.60;99.90;;;;;;5109475;28;20548;-92
2022/07/01 05:53:49;;;;;;;1.67;1.10;;;19.60;99.90;;;;;;5109433;27;20463;-92
2022/07/01 05:56:17;;;;;;;0.80;0.60;;;19.60;99.90;;;;;;5108327;27;20468;-91
2022/07/01 05:58:45;;;;;;;1.90;1.80;;;19.60;99.90;;;;;;5109642;28;20574;-92
2022/07/01 06:01:12;;;;;;;0.80;0.60;;;19.70;99.90;;;;;;5099686;28;20479;-92
2022/07/01 06:03:41;;;;;;;4.43;0.80;;;19.60;99.90;;;;;;5106636;28;20469;-92
2022/07/01 06:06:09;;;;;;;0.73;0.50;;;19.70;99.90;;;;;;5106781;28;20466;-94
2022/07/01 06:08:57;;;;;;;0.60;0.60;;;19.70;99.90;;;;;;5106947;28;20963;-94
2022/07/01 06:11:37;;;;;;;0.60;0.50;;;19.80;99.90;;;;;;5097119;28;20459;-93
2022/07/01 06:14:04;;;;;;;0.80;0.53;;;20.00;99.90;;;;;;5096276;27;20453;-88
2022/07/01 06:16:31;;;;;;;0.60;0.50;;;20.00;99.90;;;;;;5094413;28;20524;-90
2022/07/01 06:19:00;;;;;;;0.60;0.60;;;20.10;99.90;;;;;;5099812;28;20471;-89
2022/07/01 06:21:27;;;;;;;0.70;0.60;;;20.20;99.90;;;;;;5095103;27;20546;-89
2022/07/01 06:23:54;;;;;;;2.83;0.60;;;20.20;99.90;;;;;;5090382;27;20466;-89
2022/07/01 06:26:21;;;;;;;1.23;0.80;;;20.30;99.90;;;;;;5092987;27;20466;-89
2022/07/01 06:28:48;;;;;;;1.13;0.60;;;20.40;99.90;;;;;;5098734;27;20505;-89
2022/07/01 06:31:16;;;;;;;0.70;0.50;;;20.40;99.90;;;;;;5095682;28;20464;-90
2022/07/01 06:33:43;;;;;;;0.60;0.53;;;20.50;99.90;;;;;;5100580;28;20541;-88
2022/07/01 06:36:14;;;;;;;0.50;0.50;;;20.60;99.90;;;;;;5103630;28;20473;-90
2022/07/01 06:38:41;;;;;;;0.70;0.60;;;20.70;99.90;;;;;;5102728;28;20933;-90
2022/07/01 06:43:53;;;;;;;1.37;0.60;;;20.80;99.90;;;;;;5092818;28;20457;-91
2022/07/01 06:46:21;;;;;;;0.57;0.50;;;20.90;99.90;;;;;;5101280;28;20461;-89
2022/07/01 06:48:48;;;;;;;0.50;0.47;;;21.10;99.90;;;;;;5102349;28;20463;-91
2022/07/01 06:51:17;;;;;;;0.60;0.40;;;21.20;99.90;;;;;;5100514;28;20493;-90
2022/07/01 06:53:46;;;;;;;0.57;0.50;;;21.30;99.90;;;;;;5095423;28;21171;-90
2022/07/01 06:56:13;;;;;;;0.73;0.60;;;21.50;99.90;;;;;;5103756;28;21023;-90
2022/07/01 06:58:41;;;;;;;1.07;0.40;;;21.50;99.90;;;;;;5099753;27;20523;-90
2022/07/01 07:01:09;;;;;;;0.50;0.50;;;21.50;99.90;;;;;;5097792;28;20474;-90
2022/07/01 07:03:36;;;;;;;0.50;0.50;;;21.50;99.90;;;;;;5099818;28;20473;-91
2022/07/01 07:06:04;;;;;;;0.60;0.50;;;21.50;99.90;;;;;;5101136;28;20522;-90
2022/07/01 07:08:33;;;;;;;0.70;0.70;;;21.70;99.90;;;;;;5096383;28;20465;-91
2022/07/01 07:11:02;;;;;;;0.60;0.50;;;21.90;99.90;;;;;;5105690;28;20477;-90
2022/07/01 07:13:30;;;;;;;1.30;1.10;;;22.10;99.90;;;;;;5105730;28;20493;-88
2022/07/01 07:15:57;;;;;;;0.60;0.47;;;21.90;99.90;;;;;;5105358;28;20462;-90
2022/07/01 07:18:25;;;;;;;0.70;0.50;;;21.90;99.90;;;;;;5103598;27;20466;-90
2022/07/01 07:20:53;;;;;;;0.53;0.50;;;21.70;99.90;;;;;;5097701;28;20576;-90
2022/07/01 07:23:20;;;;;;;0.53;0.40;;;21.70;99.90;;;;;;5079300;28;20532;-90
2022/07/01 07:25:48;;;;;;;1.07;0.63;;;21.60;99.90;;;;;;5079842;28;20493;-90
2022/07/01 07:28:20;;;;;;;0.63;0.53;;;21.50;99.90;;;;;;5072217;28;20452;-89
2022/07/01 07:30:47;;;;;;;2.30;0.50;;;21.60;99.90;;;;;;5081998;28;21230;-90
2022/07/01 07:33:15;;;;;;;0.80;0.50;;;21.70;99.90;;;;;;5075217;28;20451;-90
2022/07/01 07:35:42;;;;;;;0.50;0.50;;;21.90;99.90;;;;;;5079440;28;20465;-91
2022/07/01 07:38:10;;;;;;;1.23;0.50;;;22.10;99.90;;;;;;5086886;28;21109;-90
2022/07/01 07:40:37;;;;;;;0.70;0.50;;;22.50;99.90;;;;;;5080811;28;21499;-93
2022/07/01 07:43:07;;;;;;;2.13;0.57;;;22.80;99.90;;;;;;5088552;28;20508;-90
2022/07/01 07:45:34;;;;;;;2.90;0.60;;;23.00;99.90;;;;;;5081357;28;20478;-89
2022/07/01 07:48:02;;;;;;;1.70;0.60;;;23.40;99.90;;;;;;5086419;28;20455;-90
2022/07/01 07:50:29;;;;;;;1.37;0.50;;;23.40;99.90;;;;;;5088375;28;20527;-89
2022/07/01 07:52:58;;;;;;;0.80;0.80;;;23.40;99.90;;;;;;5083902;28;20480;-91
2022/07/01 07:55:27;;;;;;;0.70;0.60;;;23.50;99.90;;;;;;5088036;28;20466;-90
2022/07/01 07:57:55;;;;;;;0.93;0.70;;;23.20;99.90;;;;;;5076716;28;20458;-93
2022/07/01 08:00:23;;;;;;;0.70;0.60;;;22.80;99.90;;;;;;5080528;28;20467;-90
2022/07/01 08:02:50;;;;;;;0.60;0.57;;;22.60;99.90;;;;;;5076916;28;20466;-91
2022/07/01 08:05:17;;;;;;;3.07;0.87;;;22.70;99.90;;;;;;5082565;28;20486;-92
2022/07/01 08:07:45;;;;;;;0.60;0.60;;;23.00;99.90;;;;;;5077180;28;20548;-90
2022/07/01 08:10:13;;;;;;;0.50;0.50;;;23.30;99.90;;;;;;5080496;28;20463;-87
2022/07/01 08:12:41;;;;;;;0.77;0.77;;;23.20;99.90;;;;;;5071995;28;20450;-87
2022/07/01 08:15:08;;;;;;;0.50;0.50;;;22.80;99.90;;;;;;5076546;28;20487;-89
2022/07/01 08:17:37;;;;;;;0.60;0.60;;;22.70;99.90;;;;;;5084195;28;20451;-85
2022/07/01 08:20:05;;;;;;;0.50;0.43;;;22.70;99.90;;;;;;5080098;28;20908;-88
2022/07/01 08:22:33;;;;;;;0.73;0.50;;;22.70;99.90;;;;;;5099902;28;20532;-89
2022/07/01 08:25:00;;;;;;;0.60;0.53;;;22.80;99.90;;;;;;5104735;28;20482;-87
2022/07/01 08:27:27;;;;;;;0.70;0.60;;;22.80;99.90;;;;;;5098394;28;20519;-87
2022/07/01 08:29:54;;;;;;;0.70;0.50;;;23.10;99.90;;;;;;5107128;28;20458;-88
2022/07/01 08:32:22;;;;;;;3.07;2.13;;;23.40;99.90;;;;;;5103494;27;20488;-83
2022/07/01 08:34:50;;;;;;;2.87;0.90;;;23.70;99.90;;;;;;5113194;27;20448;-83
2022/07/01 08:37:17;;;;;;;0.60;0.60;;;23.80;99.90;;;;;;5126877;27;20458;-86
2022/07/01 08:39:44;;;;;;;0.53;0.53;;;23.40;99.90;;;;;;5128062;28;20462;-85
2022/07/01 08:42:11;;;;;;;1.53;0.80;;;23.40;99.90;;;;;;5111436;28;21152;-86
2022/07/01 08:44:38;;;;;;;0.80;0.80;;;23.60;99.90;;;;;;5116520;28;20470;-86
2022/07/01 08:47:05;;;;;;;0.50;0.50;;;23.70;99.90;;;;;;5105421;28;20469;-86
2022/07/01 08:49:32;;;;;;;0.60;0.60;;;23.90;99.90;;;;;;5111007;28;20538;-88
2022/07/01 08:52:01;;;;;;;0.70;0.60;;;24.00;99.90;;;;;;5097809;28;20543;-86
2022/07/01 08:54:28;;;;;;;0.90;0.77;;;24.40;99.90;;;;;;5102306;28;20514;-87
2022/07/01 08:56:55;;;;;;;0.70;0.70;;;24.60;99.90;;;;;;5109045;27;20506;-86
2022/07/01 08:59:27;;;;;;;0.70;0.70;;;24.50;99.90;;;;;;5111608;27;20858;-86
2022/07/01 09:01:58;;;;;;;0.70;0.60;;;24.50;99.90;;;;;;5106275;28;20454;-87
2022/07/01 09:04:25;;;;;;;0.80;0.80;;;24.80;99.90;;;;;;5104822;28;20438;-86
2022/07/01 09:06:58;;;;;;;0.60;0.60;;;24.90;99.90;;;;;;5107273;28;21125;-86
2022/07/01 09:09:26;;;;;;;0.90;0.90;;;24.60;99.90;;;;;;5108142;28;20457;-86
2022/07/01 09:11:56;;;;;;;0.90;0.80;;;24.80;99.90;;;;;;5106519;28;20804;-86
2022/07/01 09:14:24;;;;;;;0.60;0.60;;;24.80;99.90;;;;;;5103588;28;20458;-86
2022/07/01 09:16:54;;;;;;;1.53;0.90;;;24.90;99.80;;;;;;5109005;28;20478;-86
2022/07/01 09:19:23;;;;;;;0.70;0.60;;;24.80;99.80;;;;;;5106795;28;20458;-86
2022/07/01 09:21:52;;;;;;;0.80;0.80;;;24.80;99.90;;;;;;5082485;28;20513;-87
2022/07/01 09:24:30;;;;;;;0.87;0.87;;;24.80;99.80;;;;;;5085145;28;20451;-86
2022/07/01 09:26:58;;;;;;;0.80;0.80;;;24.80;99.90;;;;;;5086175;28;21044;-86
2022/07/01 09:29:31;;;;;;;0.90;0.80;;;25.00;99.90;;;;;;5085347;28;20466;-86
2022/07/01 09:31:58;;;;;;;1.20;0.80;;;25.20;99.90;;;;;;5084390;28;20934;-87
2022/07/01 09:34:25;;;;;;;2.30;0.70;;;25.00;99.90;;;;;;5084784;28;20463;-86
2022/07/01 09:36:54;;;;;;;0.73;0.70;;;25.20;99.90;;;;;;5086552;28;20471;-86
2022/07/01 09:39:21;;;;;;;0.70;0.70;;;25.20;99.90;;;;;;5083813;28;20532;-86
2022/07/01 09:41:50;;;;;;;0.90;0.70;;;25.10;99.70;;;;;;5084570;28;20559;-86
2022/07/01 09:44:17;;;;;;;0.73;0.73;;;25.00;99.90;;;;;;5079827;28;20459;-86
2022/07/01 09:46:57;;;;;;;0.87;0.70;;;25.10;99.80;;;;;;5076940;28;20486;-87
2022/07/01 09:49:25;;;;;;;0.90;0.90;;;25.20;99.90;;;;;;5085570;28;21069;-87
2022/07/01 09:51:52;;;;;;;2.60;0.77;;;25.40;99.90;;;;;;5084895;28;20998;-87
2022/07/01 09:54:21;;;;;;;0.70;0.60;;;25.40;99.90;;;;;;5082083;28;20873;-87
2022/07/01 09:56:48;;;;;;;1.00;1.00;;;25.50;99.80;;;;;;5083331;28;20460;-89
2022/07/01 09:59:17;;;;;;;1.00;1.00;;;25.50;99.50;;;;;;5081924;28;20464;-87
2022/07/01 10:01:45;;;;;;;3.07;1.43;;;25.30;98.90;;;;;;5086674;28;20455;-87
2022/07/01 10:04:15;;;;;;;1.23;0.90;;;25.50;99.10;;;;;;5087241;28;20489;-87
2022/07/01 10:07:15;;;;;;;1.27;1.10;;;25.30;99.50;;;;;;5083807;28;20485;-87
2022/07/01 10:10:03;;;;;;;2.03;1.53;;;25.40;99.30;;;;;;5085203;28;20459;-87
2022/07/01 10:12:37;;;;;;;1.20;1.10;;;25.40;99.00;;;;;;5086374;28;20565;-87
2022/07/01 10:15:07;;;;;;;1.80;1.37;;;25.60;99.90;;;;;;5080640;28;20468;-87
2022/07/01 10:17:37;;;;;;;1.30;1.20;;;25.70;97.90;;;;;;5086621;28;20520;-87
2022/07/01 10:20:11;;;;;;;1.30;1.20;;;25.70;97.90;;;;;;5089813;28;20496;-87
2022/07/01 10:22:40;;;;;;;2.50;1.20;;;26.20;99.00;;;;;;5101220;28;20458;-88
2022/07/01 10:25:48;;;;;;;1.60;1.27;;;26.40;98.30;;;;;;5107196;28;20454;-87
2022/07/01 10:28:22;;;;;;;1.00;1.00;;;26.70;97.30;;;;;;5056012;28;20481;-87
2022/07/01 10:30:52;;;;;;;1.27;1.17;;;26.00;97.30;;;;;;5106824;28;20951;-87
2022/07/01 10:33:29;;;;;;;3.37;1.50;;;26.20;98.20;;;;;;5104683;28;20450;-87
2022/07/01 10:35:56;;;;;;;1.10;1.00;;;26.40;96.70;;;;;;5104376;28;20470;-87
2022/07/01 10:38:23;;;;;;;1.50;1.40;;;26.00;96.50;;;;;;5098964;28;20454;-87
2022/07/01 10:40:50;;;;;;;1.10;1.00;;;26.00;97.70;;;;;;5101492;28;20466;-87
2022/07/01 10:43:18;;;;;;;2.80;1.37;;;26.00;99.00;;;;;;5100324;28;20470;-87
2022/07/01 10:45:47;;;;;;;1.07;1.00;;;25.80;98.70;;;;;;5092211;28;20477;-88
2022/07/01 10:48:24;;;;;;;1.20;1.10;;;25.90;97.90;;;;;;5095716;28;20466;-87
2022/07/01 10:50:52;;;;;;;1.27;1.10;;;25.80;97.30;;;;;;5096800;28;20527;-89
2022/07/01 10:53:20;;;;;;;0.93;0.93;;;25.60;97.90;;;;;;5092722;27;21938;-87
2022/07/01 10:55:49;;;;;;;0.70;0.70;;;25.10;99.20;;;;;;5096815;27;21254;-88
2022/07/01 10:59:15;;;;;;;0.80;0.80;;;25.40;98.60;;;;;;5098632;28;20466;-87
2022/07/01 11:01:42;;;;;;;1.07;0.97;;;25.70;97.90;;;;;;5095023;28;20527;-86
2022/07/01 11:04:10;;;;;;;1.47;1.20;;;26.30;98.00;;;;;;5101457;27;20454;-87
2022/07/01 11:06:39;;;;;;;1.47;1.37;;;26.30;97.60;;;;;;5101046;28;20869;-87
2022/07/01 11:09:06;;;;;;;1.30;1.20;;;25.90;98.60;;;;;;5097756;28;20462;-87
2022/07/01 11:11:34;;;;;;;1.40;1.03;;;26.20;97.60;;;;;;5099007;28;20457;-87
2022/07/01 11:14:01;;;;;;;1.60;1.50;;;26.50;97.10;;;;;;5102608;28;21031;-87
2022/07/01 11:16:30;;;;;;;1.37;1.27;;;26.40;96.30;;;;;;5088745;28;20510;-87
2022/07/01 11:18:57;;;;;;;1.97;1.73;;;26.50;97.40;;;;;;5097249;28;20504;-86
2022/07/01 11:21:26;;;;;;;1.47;1.23;;;26.80;96.20;;;;;;5101429;28;20559;-87
2022/07/01 11:23:56;;;;;;;1.00;1.00;;;26.80;96.70;;;;;;5092357;28;20470;-87
2022/07/01 11:26:24;;;;;;;1.47;1.37;;;26.00;96.50;;;;;;5093524;28;21346;-87
2022/07/01 11:28:51;;;;;;;1.50;1.50;;;25.60;97.30;;;;;;5095169;28;20462;-87
2022/07/01 11:31:28;;;;;;;2.60;2.00;;;25.50;96.70;;;;;;5101318;27;21023;-87
2022/07/01 11:33:56;;;;;;;1.17;0.97;;;25.90;98.00;;;;;;5104445;28;20503;-87
2022/07/01 11:39:24;;;;;;;1.50;1.40;;;25.60;98.30;;;;;;5113161;28;20445;-86
2022/07/01 11:41:54;;;;;;;1.83;1.63;;;25.80;98.20;;;;;;5110739;28;20450;-86
2022/07/01 11:44:29;;;;;;;1.70;1.60;;;25.70;97.90;;;;;;5096995;28;20467;-87
2022/07/01 11:46:56;;;;;;;1.20;1.10;;;25.80;97.00;;;;;;5098056;28;21334;-87
2022/07/01 11:49:24;;;;;;;1.33;1.10;;;25.90;97.80;;;;;;5098507;28;20474;-87
2022/07/01 11:51:57;;;;;;;1.17;1.07;;;26.10;97.10;;;;;;5103558;28;20449;-87
2022/07/01 11:54:25;;;;;;;1.10;1.07;;;25.90;96.50;;;;;;5102118;28;20465;-87
2022/07/01 11:56:52;;;;;;;1.10;1.00;;;25.70;97.20;;;;;;5102976;28;20541;-86
2022/07/01 11:59:20;;;;;;;1.73;1.33;;;26.00;98.90;;;;;;5097689;28;20515;-87
2022/07/01 12:01:53;;;;;;;1.53;1.40;;;26.20;96.60;;;;;;5100781;28;20516;-87
2022/07/01 12:04:21;;;;;;;0.97;0.97;;;25.80;96.90;;;;;;5100599;28;21172;-87
2022/07/01 12:06:49;;;;;;;1.67;1.20;;;25.40;97.40;;;;;;5101061;28;20489;-87
2022/07/01 12:09:19;;;;;;;1.67;1.20;;;25.90;98.20;;;;;;5100384;28;20458;-86
2022/07/01 12:11:49;;;;;;;1.30;1.07;;;26.30;98.10;;;;;;5095601;28;20474;-89
2022/07/01 12:14:21;;;;;;;1.87;1.33;;;26.40;97.80;;;;;;5094806;28;20462;-86
2022/07/01 12:16:51;;;;;;;1.20;1.10;;;25.70;96.80;;;;;;5096430;28;20499;-86
2022/07/01 12:19:18;;;;;;;1.77;1.30;;;25.70;97.20;;;;;;5094763;28;20471;-87
2022/07/01 12:21:50;;;;;;;1.47;1.37;;;26.20;98.30;;;;;;5094614;28;20521;-86
2022/07/01 12:24:21;;;;;;;1.27;1.17;;;25.90;96.70;;;;;;5095002;28;20881;-86
2022/07/01 12:26:50;;;;;;;1.47;1.37;;;26.20;96.30;;;;;;5090345;28;20483;-86
2022/07/01 12:29:18;;;;;;;0.90;0.90;;;26.20;96.20;;;;;;5092884;28;20471;-86
2022/07/01 12:31:55;;;;;;;0.70;0.70;;;26.10;96.10;;;;;;5093988;28;20520;-86
2022/07/01 12:34:23;;;;;;;1.43;1.33;;;26.30;96.20;;;;;;5092041;28;20453;-87
2022/07/01 12:36:59;;;;;;;1.80;1.00;;;26.60;97.20;;;;;;5092533;28;20488;-87
2022/07/01 12:39:29;;;;;;;0.87;0.87;;;26.20;96.30;;;;;;5091030;28;20486;-88
2022/07/01 12:41:58;;;;;;;0.90;0.90;;;26.20;96.10;;;;;;5091277;28;20836;-88
2022/07/01 12:44:28;;;;;;;1.20;1.10;;;26.10;96.40;;;;;;5093507;28;20466;-86
2022/07/01 12:46:55;;;;;;;0.83;0.70;;;25.90;96.00;;;;;;5097976;28;20485;-86
2022/07/01 12:49:24;;;;;;;1.03;0.90;;;25.90;95.90;;;;;;5093443;28;20460;-85
2022/07/01 12:51:51;;;;;;;2.00;0.93;;;25.70;97.00;;;;;;5093573;28;20546;-86
2022/07/01 12:54:38;;;;;;;1.07;0.90;;;25.40;97.30;;;;;;5105360;28;20459;-86
2022/07/01 12:57:05;;;;;;;0.80;0.77;;;25.30;97.80;;;;;;5099604;28;20656;-86
2022/07/01 12:59:32;;;;;;;1.17;1.07;;;25.20;97.90;;;;;;5101755;28;20517;-86
2022/07/01 13:02:01;;;;;;;0.67;0.67;;;25.20;97.00;;;;;;5095939;28;20483;-86
2022/07/01 13:04:29;;;;;;;0.70;0.60;;;25.20;98.20;;;;;;5100278;28;20454;-86
2022/07/01 13:06:56;;;;;;;1.70;0.70;;;25.20;97.80;;;;;;5101397;28;20481;-86
2022/07/01 13:09:23;;;;;;;1.03;0.70;;;25.10;97.90;;;;;;5098963;28;20469;-86
2022/07/01 13:11:52;;;;;;;0.77;0.77;;;25.10;97.90;;;;;;5093898;27;20460;-86
2022/07/01 13:14:19;;;;;;;0.60;0.60;;;25.00;98.00;;;;;;5100430;27;21228;-86
2022/07/01 13:16:45;;;;;;;0.70;0.70;;;24.80;98.50;;;;;;5101197;28;20570;-86